createdAt,value
2017-03-14T00:00:02.387Z,71.90
2017-03-14T00:01:05.682Z,71.50
2017-03-14T00:02:09.110Z,71.70
2017-03-14T00:03:12.376Z,72.00
2017-03-14T00:04:15.669Z,71.90
2017-03-14T00:05:19.067Z,71.80
2017-03-14T00:06:21.589Z,71.80
2017-03-14T00:07:27.806Z,72.10
2017-03-14T00:08:31.090Z,71.90
2017-03-14T00:09:34.354Z,72.00
2017-03-14T00:10:37.619Z,72.80
2017-03-14T00:11:40.995Z,71.90
2017-03-14T00:12:43.474Z,71.90
2017-03-14T00:13:47.534Z,72.10
2017-03-14T00:14:50.857Z,72.20
2017-03-14T00:15:54.249Z,72.00
2017-03-14T00:16:56.777Z,72.00
2017-03-14T00:17:59.889Z,72.50
2017-03-14T00:19:03.269Z,72.50
2017-03-14T00:20:06.489Z,72.30
2017-03-14T00:21:08.961Z,72.30
2017-03-14T00:22:12.101Z,71.90
2017-03-14T00:23:14.609Z,72.50
2017-03-14T00:24:16.965Z,72.40
2017-03-14T00:25:20.862Z,72.40
2017-03-14T00:26:23.394Z,72.20
2017-03-14T00:27:26.561Z,72.70
2017-03-14T00:28:29.010Z,72.50
2017-03-14T00:29:32.190Z,72.30
2017-03-14T00:30:34.791Z,72.30
2017-03-14T00:31:38.073Z,72.30
2017-03-14T00:32:41.397Z,71.80
2017-03-14T00:33:44.645Z,71.90
2017-03-14T00:34:47.970Z,72.20
2017-03-14T00:35:50.616Z,72.00
2017-03-14T00:36:54.598Z,72.50
2017-03-14T00:37:57.097Z,72.50
2017-03-14T00:39:00.348Z,72.10
2017-03-14T00:40:03.470Z,71.60
2017-03-14T00:41:06.835Z,71.50
2017-03-14T00:42:09.382Z,71.50
2017-03-14T00:43:13.378Z,71.10
2017-03-14T00:44:16.669Z,70.80
2017-03-14T00:45:19.265Z,70.70
2017-03-14T00:46:23.339Z,70.50
2017-03-14T00:47:25.791Z,70.30
2017-03-14T00:48:29.115Z,70.30
2017-03-14T00:49:32.430Z,70.20
2017-03-14T00:50:37.429Z,69.70
2017-03-14T00:51:40.665Z,69.70
2017-03-14T00:52:43.145Z,69.50
2017-03-14T00:53:46.344Z,69.60
2017-03-14T00:54:49.490Z,69.50
2017-03-14T00:55:52.717Z,69.20
2017-03-14T00:56:56.671Z,69.10
2017-03-14T00:57:59.965Z,69.20
2017-03-14T00:59:03.357Z,69.10
2017-03-14T01:00:06.733Z,69.10
2017-03-14T01:01:10.086Z,69.10
2017-03-14T01:02:13.302Z,69.40
2017-03-14T01:03:16.570Z,69.40
2017-03-14T01:04:19.970Z,69.70
2017-03-14T01:05:22.550Z,69.40
2017-03-14T01:06:25.001Z,69.80
2017-03-14T01:07:28.909Z,70.50
2017-03-14T01:08:31.514Z,70.50
2017-03-14T01:09:35.574Z,71.00
2017-03-14T01:10:38.129Z,70.90
2017-03-14T01:11:40.479Z,71.20
2017-03-14T01:12:43.588Z,71.60
2017-03-14T01:13:47.577Z,72.00
2017-03-14T01:14:50.972Z,71.70
2017-03-14T01:15:54.349Z,72.10
2017-03-14T01:16:57.670Z,72.30
2017-03-14T01:18:00.125Z,72.30
2017-03-14T01:19:04.208Z,72.90
2017-03-14T01:20:06.637Z,72.90
2017-03-14T01:21:09.033Z,72.80
2017-03-14T01:22:12.240Z,72.90
2017-03-14T01:23:16.221Z,72.90
2017-03-14T01:24:19.570Z,73.20
2017-03-14T01:25:23.083Z,72.80
2017-03-14T01:26:26.380Z,72.90
2017-03-14T01:27:29.030Z,72.70
2017-03-14T01:28:32.257Z,72.80
2017-03-14T01:29:35.507Z,73.00
2017-03-14T01:30:37.850Z,73.20
2017-03-14T01:31:40.218Z,73.10
2017-03-14T01:32:44.261Z,73.00
2017-03-14T01:33:46.886Z,73.00
2017-03-14T01:34:50.162Z,73.40
2017-03-14T01:35:54.166Z,73.20
2017-03-14T01:36:57.560Z,73.70
2017-03-14T01:38:00.239Z,73.50
2017-03-14T01:39:03.496Z,73.80
2017-03-14T01:40:06.642Z,73.30
2017-03-14T01:41:09.701Z,73.50
2017-03-14T01:42:13.048Z,73.70
2017-03-14T01:43:16.288Z,73.80
2017-03-14T01:44:19.639Z,74.00
2017-03-14T01:45:22.073Z,73.90
2017-03-14T01:46:26.109Z,73.90
2017-03-14T01:47:29.386Z,74.10
2017-03-14T01:48:31.997Z,74.10
2017-03-14T01:49:35.975Z,73.60
2017-03-14T01:50:38.453Z,73.60
2017-03-14T01:51:41.672Z,73.70
2017-03-14T01:52:44.942Z,73.90
2017-03-14T01:53:48.057Z,74.00
2017-03-14T01:54:50.564Z,74.00
2017-03-14T01:55:53.734Z,74.00
2017-03-14T01:56:56.945Z,74.30
2017-03-14T01:58:00.142Z,74.20
2017-03-14T01:59:04.197Z,74.40
2017-03-14T02:00:07.381Z,74.50
2017-03-14T02:01:09.811Z,74.50
2017-03-14T02:02:12.967Z,74.30
2017-03-14T02:03:16.191Z,74.10
2017-03-14T02:04:19.598Z,74.10
2017-03-14T02:05:22.070Z,74.10
2017-03-14T02:06:26.129Z,74.30
2017-03-14T02:07:28.639Z,74.30
2017-03-14T02:08:31.873Z,74.30
2017-03-14T02:09:34.361Z,74.00
2017-03-14T02:10:37.549Z,74.20
2017-03-14T02:11:40.642Z,74.50
2017-03-14T02:12:43.882Z,74.60
2017-03-14T02:13:46.330Z,74.40
2017-03-14T02:14:49.481Z,74.50
2017-03-14T02:15:53.540Z,74.20
2017-03-14T02:16:56.916Z,74.50
2017-03-14T02:17:59.366Z,74.50
2017-03-14T02:19:02.542Z,74.40
2017-03-14T02:20:06.690Z,74.50
2017-03-14T02:21:09.874Z,74.60
2017-03-14T02:22:13.122Z,74.50
2017-03-14T02:23:15.673Z,74.50
2017-03-14T02:24:19.709Z,74.20
2017-03-14T02:25:22.321Z,74.20
2017-03-14T02:26:25.539Z,74.30
2017-03-14T02:27:27.850Z,74.00
2017-03-14T02:28:30.994Z,74.20
2017-03-14T02:29:33.420Z,74.20
2017-03-14T02:30:36.791Z,74.10
2017-03-14T02:31:40.833Z,74.00
2017-03-14T02:32:44.126Z,74.10
2017-03-14T02:33:46.686Z,74.10
2017-03-14T02:34:49.765Z,73.80
2017-03-14T02:35:53.136Z,73.90
2017-03-14T02:36:56.438Z,74.00
2017-03-14T02:37:59.835Z,74.10
2017-03-14T02:39:02.362Z,74.00
2017-03-14T02:40:05.484Z,73.60
2017-03-14T02:41:08.836Z,73.70
2017-03-14T02:42:12.137Z,73.70
2017-03-14T02:43:14.752Z,73.60
2017-03-14T02:44:18.810Z,74.00
2017-03-14T02:45:21.289Z,74.00
2017-03-14T02:46:25.337Z,73.80
2017-03-14T02:47:28.549Z,74.50
2017-03-14T02:48:31.942Z,73.50
2017-03-14T02:49:35.235Z,73.70
2017-03-14T02:50:38.609Z,73.80
2017-03-14T02:51:43.187Z,73.70
2017-03-14T02:52:46.406Z,73.80
2017-03-14T02:53:49.793Z,73.60
2017-03-14T02:54:52.373Z,73.50
2017-03-14T02:55:56.461Z,73.70
2017-03-14T02:56:59.799Z,73.60
2017-03-14T02:58:03.103Z,73.50
2017-03-14T02:59:06.531Z,73.40
2017-03-14T03:00:09.054Z,73.30
2017-03-14T03:01:13.093Z,73.60
2017-03-14T03:02:16.514Z,73.80
2017-03-14T03:03:19.020Z,73.70
2017-03-14T03:04:22.297Z,73.70
2017-03-14T03:05:26.327Z,73.80
2017-03-14T03:06:28.885Z,73.70
2017-03-14T03:07:31.269Z,73.70
2017-03-14T03:08:35.365Z,73.80
2017-03-14T03:09:38.706Z,73.80
2017-03-14T03:10:42.133Z,73.80
2017-03-14T03:11:44.767Z,73.70
2017-03-14T03:12:48.133Z,73.80
2017-03-14T03:13:51.221Z,73.80
2017-03-14T03:14:53.797Z,73.70
2017-03-14T03:15:57.738Z,73.80
2017-03-14T03:17:00.291Z,73.80
2017-03-14T03:18:04.339Z,73.30
2017-03-14T03:19:07.574Z,73.30
2017-03-14T03:20:10.970Z,73.60
2017-03-14T03:21:13.497Z,73.50
2017-03-14T03:22:15.871Z,73.30
2017-03-14T03:23:19.257Z,73.20
2017-03-14T03:24:22.538Z,73.20
2017-03-14T03:25:25.682Z,73.20
2017-03-14T03:26:28.878Z,73.30
2017-03-14T03:27:32.278Z,73.20
2017-03-14T03:28:36.353Z,73.40
2017-03-14T03:29:38.818Z,73.40
2017-03-14T03:30:42.873Z,73.30
2017-03-14T03:31:46.326Z,73.00
2017-03-14T03:32:49.645Z,73.10
2017-03-14T03:33:53.007Z,73.10
2017-03-14T03:34:56.418Z,72.90
2017-03-14T03:35:59.013Z,72.90
2017-03-14T03:37:01.389Z,73.10
2017-03-14T03:38:05.376Z,73.50
2017-03-14T03:39:07.911Z,73.50
2017-03-14T03:40:11.078Z,73.50
2017-03-14T03:41:15.089Z,73.00
2017-03-14T03:42:18.484Z,73.20
2017-03-14T03:43:21.162Z,73.10
2017-03-14T03:44:24.445Z,73.10
2017-03-14T03:45:27.722Z,73.10
2017-03-14T03:46:30.150Z,73.00
2017-03-14T03:47:33.530Z,73.10
2017-03-14T03:48:36.841Z,73.10
2017-03-14T03:49:41.065Z,72.90
2017-03-14T03:50:44.282Z,72.90
2017-03-14T03:51:46.880Z,72.90
2017-03-14T03:52:50.130Z,73.20
2017-03-14T03:53:54.117Z,73.20
2017-03-14T03:54:56.713Z,73.20
2017-03-14T03:56:00.760Z,74.10
2017-03-14T03:57:03.383Z,73.20
2017-03-14T03:58:05.930Z,73.40
2017-03-14T03:59:09.178Z,73.40
2017-03-14T04:00:13.224Z,73.20
2017-03-14T04:01:15.697Z,73.10
2017-03-14T04:02:18.930Z,73.00
2017-03-14T04:03:21.399Z,73.00
2017-03-14T04:04:24.634Z,73.00
2017-03-14T04:05:27.109Z,73.20
2017-03-14T04:06:31.142Z,73.40
2017-03-14T04:07:33.749Z,73.40
2017-03-14T04:08:37.050Z,73.30
2017-03-14T04:09:41.137Z,73.40
2017-03-14T04:10:44.537Z,73.60
2017-03-14T04:11:47.869Z,73.70
2017-03-14T04:12:51.089Z,73.80
2017-03-14T04:13:53.570Z,73.70
2017-03-14T04:14:56.037Z,73.80
2017-03-14T04:16:00.085Z,73.60
2017-03-14T04:17:03.303Z,73.60
2017-03-14T04:18:06.634Z,73.60
2017-03-14T04:19:09.374Z,73.50
2017-03-14T04:20:12.538Z,73.40
2017-03-14T04:21:17.150Z,73.50
2017-03-14T04:22:19.561Z,73.50
2017-03-14T04:23:22.739Z,73.60
2017-03-14T04:24:26.621Z,73.80
2017-03-14T04:25:29.133Z,73.70
2017-03-14T04:26:33.154Z,74.20
2017-03-14T04:27:35.637Z,73.30
2017-03-14T04:28:39.682Z,73.70
2017-03-14T04:29:42.978Z,73.60
2017-03-14T04:30:45.601Z,73.60
2017-03-14T04:31:48.872Z,73.50
2017-03-14T04:32:51.477Z,73.40
2017-03-14T04:33:54.642Z,73.20
2017-03-14T04:34:58.689Z,72.90
2017-03-14T04:36:01.265Z,72.90
2017-03-14T04:37:03.614Z,73.10
2017-03-14T04:38:06.957Z,73.10
2017-03-14T04:39:10.065Z,73.10
2017-03-14T04:40:13.394Z,73.00
2017-03-14T04:41:15.814Z,73.00
2017-03-14T04:42:18.257Z,73.10
2017-03-14T04:43:22.173Z,73.20
2017-03-14T04:44:24.706Z,73.10
2017-03-14T04:45:27.826Z,72.50
2017-03-14T04:46:30.317Z,73.10
2017-03-14T04:47:33.413Z,73.30
2017-03-14T04:48:36.857Z,73.20
2017-03-14T04:49:39.385Z,73.10
2017-03-14T04:50:42.498Z,73.40
2017-03-14T04:51:45.794Z,73.60
2017-03-14T04:52:49.161Z,73.60
2017-03-14T04:53:51.789Z,73.60
2017-03-14T04:54:55.869Z,73.90
2017-03-14T04:55:59.144Z,73.70
2017-03-14T04:57:02.405Z,73.70
2017-03-14T04:58:05.035Z,73.70
2017-03-14T04:59:08.281Z,73.90
2017-03-14T05:00:10.666Z,74.00
2017-03-14T05:01:13.806Z,73.80
2017-03-14T05:02:17.109Z,73.90
2017-03-14T05:03:20.520Z,74.10
2017-03-14T05:04:22.959Z,74.00
2017-03-14T05:05:25.269Z,73.80
2017-03-14T05:06:29.290Z,73.40
2017-03-14T05:07:31.841Z,73.70
2017-03-14T05:08:35.905Z,73.20
2017-03-14T05:09:38.429Z,73.60
2017-03-14T05:10:41.711Z,73.70
2017-03-14T05:11:45.621Z,73.70
2017-03-14T05:12:48.224Z,73.70
2017-03-14T05:13:52.333Z,73.80
2017-03-14T05:14:54.886Z,73.70
2017-03-14T05:15:58.849Z,73.60
2017-03-14T05:17:01.282Z,73.60
2017-03-14T05:18:05.319Z,73.80
2017-03-14T05:19:08.655Z,73.90
2017-03-14T05:20:11.862Z,73.90
2017-03-14T05:21:14.320Z,73.90
2017-03-14T05:22:18.322Z,73.80
2017-03-14T05:23:20.905Z,73.80
2017-03-14T05:24:24.029Z,73.80
2017-03-14T05:25:26.601Z,73.80
2017-03-14T05:26:29.869Z,73.60
2017-03-14T05:27:33.958Z,73.50
2017-03-14T05:28:36.485Z,73.40
2017-03-14T05:29:40.555Z,73.40
2017-03-14T05:30:43.799Z,73.40
2017-03-14T05:31:46.345Z,73.30
2017-03-14T05:32:48.717Z,73.30
2017-03-14T05:33:52.730Z,73.30
2017-03-14T05:34:55.213Z,73.20
2017-03-14T05:35:57.533Z,73.20
2017-03-14T05:37:01.584Z,73.30
2017-03-14T05:38:04.840Z,73.20
2017-03-14T05:39:07.297Z,73.20
2017-03-14T05:40:11.444Z,73.10
2017-03-14T05:41:13.956Z,73.00
2017-03-14T05:42:17.204Z,73.00
2017-03-14T05:43:20.399Z,72.90
2017-03-14T05:44:23.673Z,72.70
2017-03-14T05:45:27.754Z,72.20
2017-03-14T05:46:30.165Z,72.70
2017-03-14T05:47:33.440Z,72.80
2017-03-14T05:48:36.702Z,72.70
2017-03-14T05:49:39.913Z,72.10
2017-03-14T05:50:43.254Z,72.30
2017-03-14T05:51:46.489Z,72.70
2017-03-14T05:52:49.886Z,72.20
2017-03-14T05:53:52.564Z,72.10
2017-03-14T05:54:54.885Z,72.10
2017-03-14T05:55:58.323Z,72.30
2017-03-14T05:57:01.506Z,72.10
2017-03-14T05:58:04.661Z,71.80
2017-03-14T05:59:07.937Z,71.70
2017-03-14T06:00:11.229Z,71.50
2017-03-14T06:01:13.849Z,71.50
2017-03-14T06:02:16.927Z,71.30
2017-03-14T06:03:20.981Z,71.10
2017-03-14T06:04:24.637Z,71.00
2017-03-14T06:05:27.191Z,71.00
2017-03-14T06:06:30.419Z,70.90
2017-03-14T06:07:33.699Z,70.80
2017-03-14T06:08:36.308Z,70.70
2017-03-14T06:09:39.451Z,70.70
2017-03-14T06:10:42.546Z,70.60
2017-03-14T06:11:45.209Z,70.50
2017-03-14T06:12:48.382Z,70.20
2017-03-14T06:13:51.677Z,70.00
2017-03-14T06:14:54.301Z,70.00
2017-03-14T06:15:57.423Z,69.80
2017-03-14T06:17:00.033Z,69.70
2017-03-14T06:18:03.077Z,69.70
2017-03-14T06:19:05.489Z,69.50
2017-03-14T06:20:08.833Z,69.50
2017-03-14T06:21:11.983Z,69.50
2017-03-14T06:22:17.157Z,68.90
2017-03-14T06:23:19.619Z,69.50
2017-03-14T06:24:22.860Z,68.70
2017-03-14T06:25:25.317Z,68.70
2017-03-14T06:26:28.533Z,68.50
2017-03-14T06:27:31.654Z,68.50
2017-03-14T06:28:35.068Z,68.30
2017-03-14T06:29:38.466Z,68.00
2017-03-14T06:30:41.845Z,67.40
2017-03-14T06:31:44.299Z,67.30
2017-03-14T06:32:47.581Z,67.50
2017-03-14T06:33:51.598Z,67.60
2017-03-14T06:34:54.281Z,67.40
2017-03-14T06:35:57.341Z,67.20
2017-03-14T06:37:00.741Z,67.10
2017-03-14T06:38:03.327Z,67.00
2017-03-14T06:39:06.405Z,66.70
2017-03-14T06:40:09.650Z,66.30
2017-03-14T06:41:13.045Z,66.50
2017-03-14T06:42:15.601Z,66.40
2017-03-14T06:43:19.654Z,66.60
2017-03-14T06:44:22.073Z,66.60
2017-03-14T06:45:25.161Z,66.50
2017-03-14T06:46:28.433Z,67.50
2017-03-14T06:47:31.622Z,66.60
2017-03-14T06:48:34.210Z,66.40
2017-03-14T06:49:38.294Z,66.10
2017-03-14T06:50:40.794Z,66.10
2017-03-14T06:51:43.940Z,66.00
2017-03-14T06:52:47.233Z,65.40
2017-03-14T06:53:50.740Z,65.50
2017-03-14T06:54:53.277Z,65.50
2017-03-14T06:55:57.361Z,66.10
2017-03-14T06:57:00.765Z,65.20
2017-03-14T06:58:03.337Z,65.20
2017-03-14T06:59:06.638Z,64.90
2017-03-14T07:00:10.602Z,64.30
2017-03-14T07:01:13.897Z,64.00
2017-03-14T07:02:17.289Z,63.60
2017-03-14T07:03:20.765Z,63.00
2017-03-14T07:04:24.068Z,62.80
2017-03-14T07:05:26.545Z,62.90
2017-03-14T07:06:29.834Z,62.50
2017-03-14T07:07:33.797Z,61.40
2017-03-14T07:08:36.361Z,62.00
2017-03-14T07:09:40.401Z,62.00
2017-03-14T07:10:42.917Z,62.00
2017-03-14T07:11:46.089Z,61.50
2017-03-14T07:12:50.125Z,61.00
2017-03-14T07:13:53.496Z,60.80
2017-03-14T07:14:56.122Z,60.70
2017-03-14T07:16:00.065Z,60.10
2017-03-14T07:17:02.519Z,60.10
2017-03-14T07:18:06.638Z,59.70
2017-03-14T07:19:10.026Z,59.50
2017-03-14T07:20:14.538Z,59.30
2017-03-14T07:21:17.831Z,59.30
2017-03-14T07:22:21.229Z,58.90
2017-03-14T07:23:23.921Z,58.80
2017-03-14T07:24:26.245Z,58.80
2017-03-14T07:25:28.669Z,58.40
2017-03-14T07:26:31.966Z,58.10
2017-03-14T07:27:35.998Z,58.20
2017-03-14T07:28:38.426Z,58.20
2017-03-14T07:29:40.802Z,58.00
2017-03-14T07:30:43.207Z,58.00
2017-03-14T07:31:46.445Z,57.70
2017-03-14T07:32:50.486Z,57.40
2017-03-14T07:33:53.858Z,57.20
2017-03-14T07:34:56.359Z,57.10
2017-03-14T07:35:59.693Z,56.80
2017-03-14T07:37:02.853Z,57.00
2017-03-14T07:38:06.046Z,56.60
2017-03-14T07:39:10.058Z,55.80
2017-03-14T07:40:13.449Z,55.30
2017-03-14T07:41:15.947Z,55.20
2017-03-14T07:42:19.918Z,54.40
2017-03-14T07:43:23.115Z,54.80
2017-03-14T07:44:25.669Z,54.80
2017-03-14T07:45:29.653Z,53.90
2017-03-14T07:46:33.074Z,53.10
2017-03-14T07:47:35.486Z,53.00
2017-03-14T07:48:39.520Z,51.20
2017-03-14T07:49:41.969Z,51.20
2017-03-14T07:50:45.174Z,48.70
2017-03-14T07:51:48.378Z,47.70
2017-03-14T07:52:51.643Z,46.70
2017-03-14T07:53:55.577Z,43.20
2017-03-14T07:54:58.240Z,43.20
2017-03-14T07:56:01.398Z,41.60
2017-03-14T07:57:04.664Z,37.30
2017-03-14T07:58:07.221Z,37.40
2017-03-14T07:59:10.644Z,37.70
2017-03-14T08:00:14.705Z,37.20
2017-03-14T08:01:17.157Z,37.30
2017-03-14T08:02:21.306Z,33.50
2017-03-14T08:03:23.750Z,33.90
2017-03-14T08:04:26.942Z,32.80
2017-03-14T08:05:29.495Z,32.80
2017-03-14T08:06:32.773Z,32.40
2017-03-14T08:07:35.311Z,32.40
2017-03-14T08:08:39.302Z,32.40
2017-03-14T08:09:42.678Z,31.10
2017-03-14T08:10:45.125Z,31.10
2017-03-14T08:11:47.437Z,31.40
2017-03-14T08:12:49.833Z,30.80
2017-03-14T08:13:53.113Z,29.60
2017-03-14T08:14:56.401Z,29.30
2017-03-14T08:15:59.557Z,27.10
2017-03-14T08:17:02.222Z,27.00
2017-03-14T08:18:05.601Z,27.20
2017-03-14T08:19:09.506Z,25.30
2017-03-14T08:20:12.059Z,25.20
2017-03-14T08:21:16.072Z,25.00
2017-03-14T08:22:19.388Z,24.60
2017-03-14T08:23:22.034Z,24.50
2017-03-14T08:24:25.908Z,24.10
2017-03-14T08:25:29.305Z,22.90
2017-03-14T08:26:32.712Z,24.40
2017-03-14T08:27:36.093Z,23.80
2017-03-14T09:12:23.285Z,30.50
2017-03-14T09:14:14.501Z,30.60
2017-03-14T09:15:18.418Z,30.70
2017-03-14T09:16:20.923Z,30.60
2017-03-14T09:17:23.215Z,31.60
2017-03-14T09:18:26.299Z,32.60
2017-03-14T10:36:18.088Z,41.90
2017-03-14T10:38:21.693Z,46.80
2017-03-14T10:39:28.212Z,48.00
2017-03-14T10:40:33.212Z,48.00
2017-03-14T10:41:39.404Z,50.50
2017-03-14T10:42:44.427Z,50.50
2017-03-14T10:43:49.856Z,51.60
2017-03-14T10:44:55.784Z,51.50
2017-03-14T10:46:02.036Z,52.40
2017-03-14T10:47:07.216Z,52.30
2017-03-14T10:48:12.800Z,51.20
2017-03-14T10:49:17.458Z,50.90
2017-03-14T10:50:23.957Z,52.60
2017-03-14T10:51:28.749Z,52.60
2017-03-14T10:52:33.429Z,52.80
2017-03-14T10:53:38.993Z,52.00
2017-03-14T10:54:44.558Z,51.80
2017-03-14T10:55:49.504Z,51.70
2017-03-14T10:56:55.201Z,50.90
2017-03-14T10:57:59.942Z,50.80
2017-03-14T10:59:05.565Z,51.20
2017-03-14T11:00:11.636Z,50.80
2017-03-14T11:01:17.753Z,50.90
2017-03-14T11:02:22.529Z,50.90
2017-03-14T11:03:28.784Z,50.70
2017-03-14T11:04:34.444Z,49.40
2017-03-14T11:05:39.397Z,49.40
2017-03-14T11:06:44.181Z,47.30
2017-03-14T11:07:50.651Z,46.50
2017-03-14T11:08:56.356Z,48.60
2017-03-14T11:10:01.330Z,48.70
2017-03-14T11:11:06.265Z,48.80
2017-03-14T11:12:11.009Z,49.10
2017-03-14T11:13:18.773Z,47.60
2017-03-14T11:14:24.190Z,47.50
2017-03-14T11:15:29.592Z,49.10
2017-03-14T11:16:35.105Z,49.70
2017-03-14T11:17:40.837Z,49.40
2017-03-14T11:18:45.591Z,49.40
2017-03-14T11:19:51.809Z,47.10
2017-03-14T11:20:57.492Z,46.00
2017-03-14T11:22:03.232Z,47.70
2017-03-14T11:23:08.889Z,46.80
2017-03-14T11:24:13.759Z,46.80
2017-03-14T11:25:18.581Z,45.90
2017-03-14T11:26:24.172Z,45.50
2017-03-14T11:27:29.693Z,47.00
2017-03-14T11:28:34.596Z,47.00
2017-03-14T11:29:39.420Z,46.60
2017-03-14T11:30:44.852Z,46.50
2017-03-14T11:31:50.392Z,46.80
2017-03-14T11:32:55.129Z,46.80
2017-03-14T11:34:00.585Z,44.40
2017-03-14T11:35:05.483Z,44.30
2017-03-14T11:36:11.022Z,44.20
2017-03-14T11:37:16.548Z,42.10
2017-03-14T11:38:21.524Z,42.00
2017-03-14T11:39:27.089Z,44.20
2017-03-14T11:40:31.784Z,45.70
2017-03-14T11:41:38.004Z,45.80
2017-03-14T11:42:42.860Z,45.80
2017-03-14T11:43:48.304Z,45.60
2017-03-14T11:44:53.161Z,46.20
2017-03-14T11:45:57.888Z,46.10
2017-03-14T11:47:04.252Z,43.00
2017-03-14T11:48:09.856Z,42.30
2017-03-14T11:49:14.677Z,42.40
2017-03-14T11:50:20.099Z,42.50
2017-03-14T11:51:25.920Z,42.40
2017-03-14T11:52:31.352Z,44.60
2017-03-14T11:53:37.226Z,45.90
2017-03-14T11:54:42.869Z,43.30
2017-03-14T11:55:47.672Z,43.20
2017-03-14T11:56:52.461Z,42.30
2017-03-14T11:57:57.962Z,41.80
2017-03-14T11:59:02.704Z,41.70
2017-03-14T12:00:08.297Z,42.40
2017-03-14T12:01:13.144Z,42.40
2017-03-14T12:02:18.724Z,42.10
2017-03-14T12:03:23.465Z,42.40
2017-03-14T12:04:29.016Z,41.60
2017-03-14T12:05:35.272Z,41.60
2017-03-14T12:06:43.660Z,42.20
2017-03-14T12:07:49.118Z,42.10
2017-03-14T12:08:54.744Z,44.00
2017-03-14T12:09:59.541Z,41.00
2017-03-14T12:11:05.829Z,43.00
2017-03-14T12:12:10.646Z,41.80
2017-03-14T12:13:15.361Z,41.30
2017-03-14T12:14:20.836Z,41.50
2017-03-14T12:15:25.616Z,42.40
2017-03-14T12:16:31.124Z,41.60
2017-03-14T12:17:37.563Z,41.40
2017-03-14T12:18:42.803Z,41.50
2017-03-14T12:19:49.184Z,42.20
2017-03-14T12:20:54.716Z,42.80
2017-03-14T12:22:00.272Z,40.70
2017-03-14T12:23:05.897Z,43.30
2017-03-14T12:24:10.684Z,42.50
2017-03-14T12:25:15.453Z,42.20
2017-03-14T12:26:20.912Z,41.10
2017-03-14T12:27:26.494Z,41.70
2017-03-14T12:28:32.123Z,41.90
2017-03-14T12:29:37.684Z,42.30
2017-03-14T12:30:43.104Z,41.50
2017-03-14T12:31:48.744Z,41.90
2017-03-14T12:32:54.386Z,42.90
2017-03-14T12:34:00.056Z,41.00
2017-03-14T12:35:05.714Z,42.90
2017-03-14T12:36:11.229Z,41.30
2017-03-14T12:37:15.958Z,41.20
2017-03-14T12:38:20.613Z,42.10
2017-03-14T12:39:25.317Z,42.90
2017-03-14T12:40:30.904Z,41.70
2017-03-14T12:41:35.645Z,42.60
2017-03-14T12:42:40.239Z,42.90
2017-03-14T12:43:46.684Z,42.20
2017-03-14T12:44:52.252Z,41.90
2017-03-14T12:45:57.140Z,41.80
2017-03-14T12:47:02.837Z,43.00
2017-03-14T12:48:09.104Z,42.00
2017-03-14T12:49:14.885Z,42.90
2017-03-14T12:50:20.597Z,42.00
2017-03-14T12:51:25.382Z,42.00
2017-03-14T12:52:30.917Z,42.60
2017-03-14T12:53:36.820Z,43.50
2017-03-14T12:54:41.581Z,42.90
2017-03-14T12:55:46.532Z,42.70
2017-03-14T12:56:51.289Z,42.60
2017-03-14T12:57:57.637Z,41.90
2017-03-14T12:59:03.216Z,41.90
2017-03-14T13:00:08.040Z,41.80
2017-03-14T13:01:12.676Z,43.20
2017-03-14T13:02:18.463Z,43.00
2017-03-14T13:03:23.088Z,43.50
2017-03-14T13:04:27.840Z,43.10
2017-03-14T13:05:33.407Z,43.30
2017-03-14T13:06:39.213Z,43.90
2017-03-14T13:07:44.767Z,43.70
2017-03-14T13:08:50.485Z,43.10
2017-03-14T13:09:55.142Z,43.00
2017-03-14T13:11:00.689Z,42.70
2017-03-14T13:12:06.223Z,42.50
2017-03-14T13:13:11.939Z,42.60
2017-03-14T13:14:17.393Z,42.40
2017-03-14T13:15:22.940Z,42.70
2017-03-14T13:16:28.680Z,43.20
2017-03-14T13:17:34.457Z,41.80
2017-03-14T13:18:39.376Z,41.80
2017-03-14T13:19:44.956Z,43.10
2017-03-14T13:20:50.696Z,43.90
2017-03-14T13:21:56.225Z,42.70
2017-03-14T13:23:01.725Z,42.10
2017-03-14T13:24:07.513Z,42.00
2017-03-14T13:25:13.090Z,42.80
2017-03-14T13:26:17.852Z,42.80
2017-03-14T13:27:23.424Z,42.20
2017-03-14T13:28:28.876Z,41.70
2017-03-14T13:29:34.444Z,41.70
2017-03-14T13:30:39.184Z,41.70
2017-03-14T13:31:45.493Z,42.40
2017-03-14T13:32:51.004Z,41.70
2017-03-14T13:33:56.668Z,41.50
2017-03-14T13:35:01.525Z,41.30
2017-03-14T13:36:07.010Z,41.40
2017-03-14T13:37:11.840Z,41.50
2017-03-14T13:38:16.512Z,43.50
2017-03-14T13:39:21.368Z,42.30
2017-03-14T13:40:26.133Z,40.80
2017-03-14T13:41:32.537Z,40.70
2017-03-14T13:42:41.417Z,40.30
2017-03-14T13:43:46.184Z,40.10
2017-03-14T13:44:52.523Z,39.80
2017-03-14T13:45:57.388Z,39.80
2017-03-14T13:47:02.768Z,40.60
2017-03-14T13:48:07.676Z,40.60
2017-03-14T13:49:14.049Z,41.00
2017-03-14T13:50:19.589Z,40.90
2017-03-14T13:51:25.278Z,40.80
2017-03-14T13:52:30.033Z,41.10
2017-03-14T13:53:35.480Z,39.90
2017-03-14T13:54:41.049Z,39.40
2017-03-14T13:55:45.919Z,39.30
2017-03-14T13:56:50.856Z,38.70
2017-03-14T13:57:55.612Z,39.10
2017-03-14T13:59:01.161Z,39.00
2017-03-14T14:00:06.639Z,39.80
2017-03-14T14:01:11.540Z,39.10
2017-03-14T14:02:16.329Z,38.90
2017-03-14T14:03:22.654Z,40.50
2017-03-14T14:04:28.396Z,38.60
2017-03-14T14:05:33.216Z,38.50
2017-03-14T14:06:37.929Z,38.70
2017-03-14T14:07:43.429Z,38.50
2017-03-14T14:08:48.217Z,38.40
2017-03-14T14:09:52.871Z,37.90
2017-03-14T14:10:59.345Z,39.20
2017-03-14T14:12:04.213Z,39.20
2017-03-14T14:13:09.791Z,38.30
2017-03-14T14:14:15.228Z,38.80
2017-03-14T14:15:20.008Z,38.70
2017-03-14T14:16:24.944Z,38.90
2017-03-14T14:17:30.444Z,37.90
2017-03-14T14:18:36.071Z,39.10
2017-03-14T14:19:42.329Z,38.90
2017-03-14T14:20:47.920Z,37.00
2017-03-14T14:21:52.672Z,37.00
2017-03-14T14:22:57.320Z,37.90
2017-03-14T14:24:04.665Z,38.10
2017-03-14T14:25:10.196Z,39.20
2017-03-14T14:26:15.081Z,39.10
2017-03-14T14:27:19.848Z,38.40
2017-03-14T14:28:25.453Z,39.10
2017-03-14T14:29:31.077Z,38.20
2017-03-14T14:30:36.512Z,37.70
2017-03-14T14:31:41.276Z,37.10
2017-03-14T14:32:46.781Z,37.80
2017-03-14T14:33:52.320Z,36.80
2017-03-14T14:34:57.812Z,36.50
2017-03-14T14:36:03.293Z,36.80
2017-03-14T14:37:08.955Z,36.50
2017-03-14T14:38:13.688Z,36.50
2017-03-14T14:39:18.460Z,36.40
2017-03-14T14:40:23.969Z,34.10
2017-03-14T14:41:29.658Z,34.70
2017-03-14T14:42:34.549Z,34.60
2017-03-14T14:43:40.917Z,35.30
2017-03-14T14:44:46.483Z,34.80
2017-03-14T14:45:52.215Z,34.60
2017-03-14T14:46:56.972Z,34.60
2017-03-14T14:48:02.572Z,35.60
2017-03-14T14:49:08.200Z,34.80
2017-03-14T14:50:14.053Z,34.00
2017-03-14T14:51:21.680Z,34.20
2017-03-14T14:52:27.289Z,34.30
2017-03-14T14:53:32.164Z,34.20
2017-03-14T14:54:37.656Z,34.00
2017-03-14T14:55:43.584Z,34.90
2017-03-14T14:56:49.576Z,34.00
2017-03-14T14:57:55.180Z,34.30
2017-03-14T14:59:00.025Z,34.00
2017-03-14T15:00:05.618Z,33.90
2017-03-14T15:01:10.580Z,33.80
2017-03-14T15:02:16.188Z,34.20
2017-03-14T15:03:21.622Z,34.40
2017-03-14T15:04:26.430Z,34.30
2017-03-14T15:05:31.264Z,34.80
2017-03-14T15:06:36.868Z,35.10
2017-03-14T15:07:42.365Z,35.90
2017-03-14T15:08:47.165Z,35.60
2017-03-14T15:09:52.684Z,35.50
2017-03-14T15:10:58.222Z,34.80
2017-03-14T15:12:03.857Z,35.40
2017-03-14T15:13:08.764Z,35.30
2017-03-14T15:14:15.128Z,35.30
2017-03-14T15:15:20.679Z,35.10
2017-03-14T15:16:26.335Z,34.80
2017-03-14T15:17:31.103Z,34.90
2017-03-14T15:18:35.853Z,34.80
2017-03-14T15:19:42.293Z,35.30
2017-03-14T15:20:48.824Z,34.80
2017-03-14T15:21:54.074Z,34.70
2017-03-14T15:23:00.429Z,34.40
2017-03-14T15:24:06.029Z,34.40
2017-03-14T15:25:11.537Z,34.40
2017-03-14T15:26:17.189Z,34.10
2017-03-14T15:27:21.965Z,34.00
2017-03-14T15:28:27.569Z,34.60
2017-03-14T15:29:33.217Z,34.70
2017-03-14T15:30:39.629Z,35.00
2017-03-14T15:31:45.244Z,34.70
2017-03-14T15:32:51.108Z,34.70
2017-03-14T15:33:55.893Z,34.50
2017-03-14T15:35:01.480Z,34.60
2017-03-14T15:36:07.124Z,35.00
2017-03-14T15:37:12.778Z,35.40
2017-03-14T15:38:18.601Z,35.90
2017-03-14T15:39:24.328Z,35.40
2017-03-14T15:40:29.952Z,35.50
2017-03-14T15:41:35.541Z,35.20
2017-03-14T15:42:41.233Z,35.20
2017-03-14T15:43:46.301Z,35.20
2017-03-14T15:44:52.532Z,36.20
2017-03-14T15:45:58.293Z,35.80